KBCT

Details ICAO KBCT (BCT)
Name Boca Raton
Region United States
Timezone America/New_York (UTC-5.0)
Plans Departing 45
Arriving 38
Stats Elevation 13 ft / 4 m (AMSL)
Location 26.378484° -80.107696°
Runways 1
Magnetic Variation 6.841° W
Sunrise 2017-12-15 12:02:15 UTC / 2017-12-15 07:02:15 Local
Sunset 2017-12-15 22:31:55 UTC / 2017-12-15 17:31:55 Local
Advertisement - Login to hide

Runways

ID Width Length Bearing (true) Bearing (mag) Surface Threshold Offset Overrun Length
05 150 ft / 46 m 6,283 ft / 1,915 m 44.19° 51.03° Asphalt 696 ft / 212 m 0 ft / 0 m
23 150 ft / 46 m 6,283 ft / 1,915 m 224.19° 231.03° Asphalt 378 ft / 115 m 0 ft / 0 m

Map

Weather


0- 5 10 15 20 25 30 35+ Temperature / ° C

Clouds and Precipitation
Forecast for 2017-12-15 18:00 UTC. Updated an hour ago

Ground ~20,000 ft ~40,000 ft Winds

METAR

KBCT 151254Z 00000KT 10SM CLR 12/11 A3010

TAF

Not found

Frequencies

Recorded 121.12 MHz AWOS 3
Clearance 127.35 MHz CLNC DEL
Ground 121.80 MHz GND
Approach 125.20 MHz PALM BEACH APP
Unicom 118.42 MHz CTAF
Clearance 121.80 MHz CLNC DEL
Tower 118.42 MHz TWR
Departure 127.35 MHz PALM BEACH DEP
Warning: Do not use this data for real-world aviation or navigation. No guarantee of current accuracy is given.